sensor_id;sensor_type;location;lat;lon;timestamp;P1;P2;P0
27143;PMS1003;14672;50.250;8.312;2022-11-14T00:00:33;18.75;17.75;7.00
27143;PMS1003;14672;50.250;8.312;2022-11-14T00:03:00;24.25;22.75;10.75
27143;PMS1003;14672;50.250;8.312;2022-11-14T00:05:30;18.50;16.25;8.00
27143;PMS1003;14672;50.250;8.312;2022-11-14T00:07:56;24.75;22.25;9.75
27143;PMS1003;14672;50.250;8.312;2022-11-14T00:10:22;23.00;16.25;7.75
27143;PMS1003;14672;50.250;8.312;2022-11-14T00:12:48;18.67;18.00;8.00
27143;PMS1003;14672;50.250;8.312;2022-11-14T00:15:14;28.67;27.33;11.67
27143;PMS1003;14672;50.250;8.312;2022-11-14T00:17:40;26.25;26.25;11.25
27143;PMS1003;14672;50.250;8.312;2022-11-14T00:20:07;24.00;22.00;10.00
27143;PMS1003;14672;50.250;8.312;2022-11-14T00:22:35;19.75;19.75;8.25
27143;PMS1003;14672;50.250;8.312;2022-11-14T00:25:00;23.00;22.00;10.00
27143;PMS1003;14672;50.250;8.312;2022-11-14T00:27:26;20.33;20.00;10.00
27143;PMS1003;14672;50.250;8.312;2022-11-14T00:29:52;22.00;20.33;10.00
27143;PMS1003;14672;50.250;8.312;2022-11-14T00:32:18;20.00;20.00;9.00
27143;PMS1003;14672;50.250;8.312;2022-11-14T00:34:44;23.75;22.75;8.50
27143;PMS1003;14672;50.250;8.312;2022-11-14T00:37:10;26.67;26.00;12.00
27143;PMS1003;14672;50.250;8.312;2022-11-14T00:39:36;24.75;24.50;12.00
27143;PMS1003;14672;50.250;8.312;2022-11-14T00:42:01;31.33;28.00;10.00
27143;PMS1003;14672;50.250;8.312;2022-11-14T00:44:27;30.00;23.33;10.00
27143;PMS1003;14672;50.250;8.312;2022-11-14T00:46:53;20.67;20.67;12.00
27143;PMS1003;14672;50.250;8.312;2022-11-14T00:49:19;24.67;22.00;9.00
27143;PMS1003;14672;50.250;8.312;2022-11-14T00:51:44;25.33;22.00;10.00
27143;PMS1003;14672;50.250;8.312;2022-11-14T00:54:10;22.67;20.00;8.00
27143;PMS1003;14672;50.250;8.312;2022-11-14T00:56:36;20.00;20.00;8.00
27143;PMS1003;14672;50.250;8.312;2022-11-14T00:59:02;28.00;26.00;13.33
27143;PMS1003;14672;50.250;8.312;2022-11-14T01:01:28;25.75;24.25;10.25
27143;PMS1003;14672;50.250;8.312;2022-11-14T01:03:54;30.00;27.00;12.00
27143;PMS1003;14672;50.250;8.312;2022-11-14T01:06:20;25.25;23.50;11.75
27143;PMS1003;14672;50.250;8.312;2022-11-14T01:08:48;31.00;24.25;12.25
27143;PMS1003;14672;50.250;8.312;2022-11-14T01:11:16;29.00;27.25;15.25
27143;PMS1003;14672;50.250;8.312;2022-11-14T01:13:45;24.25;22.75;11.75
27143;PMS1003;14672;50.250;8.312;2022-11-14T01:16:11;22.75;22.00;8.75
27143;PMS1003;14672;50.250;8.312;2022-11-14T01:18:38;25.75;24.75;10.75
27143;PMS1003;14672;50.250;8.312;2022-11-14T01:21:06;21.25;18.75;9.00
27143;PMS1003;14672;50.250;8.312;2022-11-14T01:23:34;31.00;27.50;12.50
27143;PMS1003;14672;50.250;8.312;2022-11-14T01:26:01;29.00;27.50;13.00
27143;PMS1003;14672;50.250;8.312;2022-11-14T01:28:29;25.75;23.25;11.75
27143;PMS1003;14672;50.250;8.312;2022-11-14T01:30:55;24.00;23.25;11.75
27143;PMS1003;14672;50.250;8.312;2022-11-14T01:33:21;25.67;23.00;12.33
27143;PMS1003;14672;50.250;8.312;2022-11-14T01:35:46;26.67;24.67;11.33
27143;PMS1003;14672;50.250;8.312;2022-11-14T01:38:13;23.00;23.00;11.50
27143;PMS1003;14672;50.250;8.312;2022-11-14T01:40:40;25.25;21.75;9.00
27143;PMS1003;14672;50.250;8.312;2022-11-14T01:46:02;32.25;29.25;13.50
27143;PMS1003;14672;50.250;8.312;2022-11-14T01:54:01;28.00;23.25;9.50
27143;PMS1003;14672;50.250;8.312;2022-11-14T01:56:37;27.25;22.75;11.25
27143;PMS1003;14672;50.250;8.312;2022-11-14T01:59:11;25.75;23.50;11.75
27143;PMS1003;14672;50.250;8.312;2022-11-14T02:01:45;23.75;21.75;11.75
27143;PMS1003;14672;50.250;8.312;2022-11-14T02:04:18;30.25;27.50;13.50
27143;PMS1003;14672;50.250;8.312;2022-11-14T02:06:53;29.75;29.00;11.75
27143;PMS1003;14672;50.250;8.312;2022-11-14T02:09:23;23.75;22.75;10.50
27143;PMS1003;14672;50.250;8.312;2022-11-14T02:11:52;31.25;27.75;13.00
27143;PMS1003;14672;50.250;8.312;2022-11-14T02:14:20;29.75;26.25;13.75
27143;PMS1003;14672;50.250;8.312;2022-11-14T02:16:47;32.25;27.75;13.75
27143;PMS1003;14672;50.250;8.312;2022-11-14T02:19:13;27.75;26.25;11.50
27143;PMS1003;14672;50.250;8.312;2022-11-14T02:21:40;24.75;24.75;12.75
27143;PMS1003;14672;50.250;8.312;2022-11-14T02:24:09;31.67;29.67;14.00
27143;PMS1003;14672;50.250;8.312;2022-11-14T02:26:36;25.50;23.50;10.50
27143;PMS1003;14672;50.250;8.312;2022-11-14T02:29:02;29.25;25.75;12.50
27143;PMS1003;14672;50.250;8.312;2022-11-14T02:31:30;33.50;27.75;12.75
27143;PMS1003;14672;50.250;8.312;2022-11-14T02:33:55;28.00;27.00;14.00
27143;PMS1003;14672;50.250;8.312;2022-11-14T02:36:21;30.67;27.33;12.33
27143;PMS1003;14672;50.250;8.312;2022-11-14T02:38:47;32.00;26.00;14.00
27143;PMS1003;14672;50.250;8.312;2022-11-14T02:41:13;27.33;26.67;12.33
27143;PMS1003;14672;50.250;8.312;2022-11-14T02:43:38;31.33;29.67;16.67
27143;PMS1003;14672;50.250;8.312;2022-11-14T02:46:04;34.67;30.67;14.00
27143;PMS1003;14672;50.250;8.312;2022-11-14T02:48:30;32.00;28.00;13.00
27143;PMS1003;14672;50.250;8.312;2022-11-14T02:50:55;34.33;30.00;14.00
27143;PMS1003;14672;50.250;8.312;2022-11-14T02:53:21;28.33;23.00;12.33
27143;PMS1003;14672;50.250;8.312;2022-11-14T02:55:47;32.67;30.00;13.67
27143;PMS1003;14672;50.250;8.312;2022-11-14T02:58:13;24.00;23.67;14.00
27143;PMS1003;14672;50.250;8.312;2022-11-14T03:00:38;34.67;28.67;14.67
27143;PMS1003;14672;50.250;8.312;2022-11-14T03:03:04;33.67;30.00;15.00
27143;PMS1003;14672;50.250;8.312;2022-11-14T03:05:30;36.00;32.00;16.00
27143;PMS1003;14672;50.250;8.312;2022-11-14T03:07:55;28.67;28.00;14.00
27143;PMS1003;14672;50.250;8.312;2022-11-14T03:10:22;27.33;27.33;14.00
27143;PMS1003;14672;50.250;8.312;2022-11-14T03:12:52;32.00;30.75;14.25
27143;PMS1003;14672;50.250;8.312;2022-11-14T03:15:22;29.25;26.25;13.75
27143;PMS1003;14672;50.250;8.312;2022-11-14T03:17:48;37.00;28.75;15.25
27143;PMS1003;14672;50.250;8.312;2022-11-14T03:20:15;33.25;32.25;16.75
27143;PMS1003;14672;50.250;8.312;2022-11-14T03:22:41;39.25;32.25;16.50
27143;PMS1003;14672;50.250;8.312;2022-11-14T03:25:07;38.00;34.00;18.00
27143;PMS1003;14672;50.250;8.312;2022-11-14T03:27:33;37.33;35.33;17.00
27143;PMS1003;14672;50.250;8.312;2022-11-14T03:29:59;27.00;26.33;13.67
27143;PMS1003;14672;50.250;8.312;2022-11-14T03:32:24;39.00;35.67;17.00
27143;PMS1003;14672;50.250;8.312;2022-11-14T03:34:50;39.67;35.33;16.00
27143;PMS1003;14672;50.250;8.312;2022-11-14T03:37:16;35.00;33.67;14.00
27143;PMS1003;14672;50.250;8.312;2022-11-14T03:39:41;32.00;30.67;14.00
27143;PMS1003;14672;50.250;8.312;2022-11-14T03:42:07;43.33;36.00;19.67
27143;PMS1003;14672;50.250;8.312;2022-11-14T03:44:33;41.67;32.00;16.33
27143;PMS1003;14672;50.250;8.312;2022-11-14T03:46:59;36.67;33.00;18.33
27143;PMS1003;14672;50.250;8.312;2022-11-14T03:49:25;36.67;34.00;18.00
27143;PMS1003;14672;50.250;8.312;2022-11-14T03:51:50;42.00;33.67;19.67
27143;PMS1003;14672;50.250;8.312;2022-11-14T03:54:16;40.67;34.00;14.33
27143;PMS1003;14672;50.250;8.312;2022-11-14T03:56:42;38.00;32.67;15.00
27143;PMS1003;14672;50.250;8.312;2022-11-14T03:59:08;43.00;36.33;18.67
27143;PMS1003;14672;50.250;8.312;2022-11-14T04:01:33;48.00;41.33;19.00
27143;PMS1003;14672;50.250;8.312;2022-11-14T04:03:59;52.33;40.67;21.33
27143;PMS1003;14672;50.250;8.312;2022-11-14T04:06:25;33.33;30.33;15.33
27143;PMS1003;14672;50.250;8.312;2022-11-14T04:08:51;36.67;36.00;19.33
27143;PMS1003;14672;50.250;8.312;2022-11-14T04:11:16;36.00;33.33;14.67
27143;PMS1003;14672;50.250;8.312;2022-11-14T04:13:43;41.75;40.75;21.00
27143;PMS1003;14672;50.250;8.312;2022-11-14T04:16:09;34.67;31.33;13.00
27143;PMS1003;14672;50.250;8.312;2022-11-14T04:18:34;39.00;33.00;16.00
27143;PMS1003;14672;50.250;8.312;2022-11-14T04:21:00;34.00;33.33;15.67
27143;PMS1003;14672;50.250;8.312;2022-11-14T04:23:26;38.33;36.33;16.00
27143;PMS1003;14672;50.250;8.312;2022-11-14T04:25:51;35.33;33.00;18.33
27143;PMS1003;14672;50.250;8.312;2022-11-14T04:28:17;37.33;35.33;15.00
27143;PMS1003;14672;50.250;8.312;2022-11-14T04:30:43;43.33;35.33;18.67
27143;PMS1003;14672;50.250;8.312;2022-11-14T04:33:09;39.25;34.00;17.75
27143;PMS1003;14672;50.250;8.312;2022-11-14T04:35:35;38.25;31.25;17.25
27143;PMS1003;14672;50.250;8.312;2022-11-14T04:38:01;32.67;32.00;17.33
27143;PMS1003;14672;50.250;8.312;2022-11-14T04:40:27;43.25;38.25;16.75
27143;PMS1003;14672;50.250;8.312;2022-11-14T04:42:53;42.75;41.00;21.75
27143;PMS1003;14672;50.250;8.312;2022-11-14T04:45:19;34.67;31.67;16.67
27143;PMS1003;14672;50.250;8.312;2022-11-14T04:47:45;36.00;31.33;16.33
27143;PMS1003;14672;50.250;8.312;2022-11-14T04:50:10;44.33;36.67;21.33
27143;PMS1003;14672;50.250;8.312;2022-11-14T04:52:36;40.00;34.67;16.67
27143;PMS1003;14672;50.250;8.312;2022-11-14T04:55:02;42.00;37.00;19.00
27143;PMS1003;14672;50.250;8.312;2022-11-14T04:57:28;37.50;34.75;17.25
27143;PMS1003;14672;50.250;8.312;2022-11-14T04:59:54;37.00;37.00;18.67
27143;PMS1003;14672;50.250;8.312;2022-11-14T05:02:19;42.33;36.33;18.00
27143;PMS1003;14672;50.250;8.312;2022-11-14T05:04:45;44.33;36.00;17.00
27143;PMS1003;14672;50.250;8.312;2022-11-14T05:07:12;41.25;38.50;15.25
27143;PMS1003;14672;50.250;8.312;2022-11-14T05:09:39;38.75;36.25;19.50
27143;PMS1003;14672;50.250;8.312;2022-11-14T05:12:04;42.33;40.00;16.33
27143;PMS1003;14672;50.250;8.312;2022-11-14T05:14:31;39.25;33.25;17.00
27143;PMS1003;14672;50.250;8.312;2022-11-14T05:16:57;36.67;34.00;15.67
27143;PMS1003;14672;50.250;8.312;2022-11-14T05:19:23;45.25;39.00;17.50
27143;PMS1003;14672;50.250;8.312;2022-11-14T05:21:49;45.33;40.33;19.33
27143;PMS1003;14672;50.250;8.312;2022-11-14T05:24:15;39.00;38.25;18.75
27143;PMS1003;14672;50.250;8.312;2022-11-14T05:26:41;46.33;39.67;21.00
27143;PMS1003;14672;50.250;8.312;2022-11-14T05:29:07;53.33;41.33;20.00
27143;PMS1003;14672;50.250;8.312;2022-11-14T05:31:32;42.33;39.00;21.67
27143;PMS1003;14672;50.250;8.312;2022-11-14T05:33:58;39.00;35.33;19.67
27143;PMS1003;14672;50.250;8.312;2022-11-14T05:36:24;47.67;40.67;21.67
27143;PMS1003;14672;50.250;8.312;2022-11-14T05:38:50;40.67;38.33;21.00
27143;PMS1003;14672;50.250;8.312;2022-11-14T05:41:16;45.33;41.67;18.33
27143;PMS1003;14672;50.250;8.312;2022-11-14T05:43:46;40.25;36.00;19.50
27143;PMS1003;14672;50.250;8.312;2022-11-14T05:46:13;37.75;33.75;19.75
27143;PMS1003;14672;50.250;8.312;2022-11-14T05:48:40;44.75;41.50;21.50
27143;PMS1003;14672;50.250;8.312;2022-11-14T05:51:06;50.33;40.33;19.67
27143;PMS1003;14672;50.250;8.312;2022-11-14T05:53:36;41.75;37.25;20.50
27143;PMS1003;14672;50.250;8.312;2022-11-14T05:56:02;39.33;37.00;19.00
27143;PMS1003;14672;50.250;8.312;2022-11-14T05:58:35;41.25;38.50;20.25
27143;PMS1003;14672;50.250;8.312;2022-11-14T06:01:05;60.00;47.00;21.50
27143;PMS1003;14672;50.250;8.312;2022-11-14T06:03:39;45.75;43.50;21.75
27143;PMS1003;14672;50.250;8.312;2022-11-14T06:06:09;44.25;39.50;22.50
27143;PMS1003;14672;50.250;8.312;2022-11-14T06:08:38;40.75;37.25;21.00
27143;PMS1003;14672;50.250;8.312;2022-11-14T06:11:09;44.00;42.50;19.25
27143;PMS1003;14672;50.250;8.312;2022-11-14T06:13:43;50.25;47.00;23.75
27143;PMS1003;14672;50.250;8.312;2022-11-14T06:16:10;53.75;46.50;24.50
27143;PMS1003;14672;50.250;8.312;2022-11-14T06:18:42;49.50;45.50;24.50
27143;PMS1003;14672;50.250;8.312;2022-11-14T06:21:10;43.25;39.75;20.75
27143;PMS1003;14672;50.250;8.312;2022-11-14T06:23:41;54.00;47.50;24.50
27143;PMS1003;14672;50.250;8.312;2022-11-14T06:26:18;49.75;40.50;22.75
27143;PMS1003;14672;50.250;8.312;2022-11-14T06:28:54;45.25;41.75;20.75
27143;PMS1003;14672;50.250;8.312;2022-11-14T06:31:21;57.25;49.50;25.50
27143;PMS1003;14672;50.250;8.312;2022-11-14T06:33:48;50.50;46.75;21.50
27143;PMS1003;14672;50.250;8.312;2022-11-14T06:36:14;52.25;45.75;24.00
27143;PMS1003;14672;50.250;8.312;2022-11-14T06:38:41;49.75;45.75;26.75
27143;PMS1003;14672;50.250;8.312;2022-11-14T06:43:45;50.00;45.50;24.25
27143;PMS1003;14672;50.250;8.312;2022-11-14T06:46:15;43.25;41.75;24.25
27143;PMS1003;14672;50.250;8.312;2022-11-14T06:48:43;54.25;45.50;21.50
27143;PMS1003;14672;50.250;8.312;2022-11-14T06:51:11;51.75;45.25;22.25
27143;PMS1003;14672;50.250;8.312;2022-11-14T06:53:39;50.00;45.50;22.75
27143;PMS1003;14672;50.250;8.312;2022-11-14T06:56:10;58.50;48.25;24.00
27143;PMS1003;14672;50.250;8.312;2022-11-14T06:58:45;53.25;49.00;24.75
27143;PMS1003;14672;50.250;8.312;2022-11-14T07:01:14;51.50;50.50;27.50
27143;PMS1003;14672;50.250;8.312;2022-11-14T07:03:50;50.75;49.00;25.75
27143;PMS1003;14672;50.250;8.312;2022-11-14T07:06:17;50.25;46.25;27.00
27143;PMS1003;14672;50.250;8.312;2022-11-14T07:08:46;61.50;52.00;26.00
27143;PMS1003;14672;50.250;8.312;2022-11-14T07:11:13;52.67;49.00;21.67
27143;PMS1003;14672;50.250;8.312;2022-11-14T07:16:30;45.25;40.50;19.25
27143;PMS1003;14672;50.250;8.312;2022-11-14T07:19:02;60.25;51.25;26.75
27143;PMS1003;14672;50.250;8.312;2022-11-14T07:21:33;49.50;47.75;23.25
27143;PMS1003;14672;50.250;8.312;2022-11-14T07:23:59;51.75;46.75;23.25
27143;PMS1003;14672;50.250;8.312;2022-11-14T07:26:25;51.33;48.00;23.33
27143;PMS1003;14672;50.250;8.312;2022-11-14T07:28:51;47.00;43.00;22.33
27143;PMS1003;14672;50.250;8.312;2022-11-14T07:31:17;47.00;42.33;19.33
27143;PMS1003;14672;50.250;8.312;2022-11-14T07:33:44;39.00;38.75;23.00
27143;PMS1003;14672;50.250;8.312;2022-11-14T07:36:11;45.50;38.00;21.50
27143;PMS1003;14672;50.250;8.312;2022-11-14T07:38:38;43.75;40.75;19.50
27143;PMS1003;14672;50.250;8.312;2022-11-14T07:41:06;43.75;42.25;21.25
27143;PMS1003;14672;50.250;8.312;2022-11-14T07:43:35;48.50;45.50;20.00
27143;PMS1003;14672;50.250;8.312;2022-11-14T07:46:04;47.75;45.25;20.75
27143;PMS1003;14672;50.250;8.312;2022-11-14T07:48:36;52.25;41.75;18.00
27143;PMS1003;14672;50.250;8.312;2022-11-14T07:51:02;44.33;41.67;20.33
27143;PMS1003;14672;50.250;8.312;2022-11-14T07:53:30;50.50;43.75;23.25
27143;PMS1003;14672;50.250;8.312;2022-11-14T07:56:01;58.00;45.00;23.50
27143;PMS1003;14672;50.250;8.312;2022-11-14T07:58:35;43.50;41.50;20.75
27143;PMS1003;14672;50.250;8.312;2022-11-14T08:01:02;58.25;49.25;22.25
27143;PMS1003;14672;50.250;8.312;2022-11-14T08:03:30;61.50;49.75;24.75
27143;PMS1003;14672;50.250;8.312;2022-11-14T08:06:06;52.50;45.25;20.00
27143;PMS1003;14672;50.250;8.312;2022-11-14T08:08:35;51.50;46.00;22.75
27143;PMS1003;14672;50.250;8.312;2022-11-14T08:11:01;50.25;43.25;21.50
27143;PMS1003;14672;50.250;8.312;2022-11-14T08:13:28;52.25;46.50;23.25
27143;PMS1003;14672;50.250;8.312;2022-11-14T08:15:55;59.75;44.75;25.50
27143;PMS1003;14672;50.250;8.312;2022-11-14T08:18:21;49.25;45.00;21.75
27143;PMS1003;14672;50.250;8.312;2022-11-14T08:20:47;47.50;46.50;23.50
27143;PMS1003;14672;50.250;8.312;2022-11-14T08:23:13;58.33;51.67;25.00
27143;PMS1003;14672;50.250;8.312;2022-11-14T08:25:39;58.50;49.25;25.25
27143;PMS1003;14672;50.250;8.312;2022-11-14T08:28:06;54.25;44.75;22.50
27143;PMS1003;14672;50.250;8.312;2022-11-14T08:30:32;52.75;46.25;22.25
27143;PMS1003;14672;50.250;8.312;2022-11-14T08:33:01;59.67;55.67;25.67
27143;PMS1003;14672;50.250;8.312;2022-11-14T08:35:29;54.25;48.25;25.00
27143;PMS1003;14672;50.250;8.312;2022-11-14T08:37:57;51.25;45.25;23.25
27143;PMS1003;14672;50.250;8.312;2022-11-14T08:40:25;48.75;45.50;24.75
27143;PMS1003;14672;50.250;8.312;2022-11-14T08:42:51;49.67;47.00;23.00
27143;PMS1003;14672;50.250;8.312;2022-11-14T08:45:23;56.25;49.25;26.25
27143;PMS1003;14672;50.250;8.312;2022-11-14T08:47:49;62.00;53.67;25.33
27143;PMS1003;14672;50.250;8.312;2022-11-14T08:50:16;56.00;51.25;27.00
27143;PMS1003;14672;50.250;8.312;2022-11-14T08:52:42;53.00;49.00;26.50
27143;PMS1003;14672;50.250;8.312;2022-11-14T08:55:13;67.00;54.25;26.25
27143;PMS1003;14672;50.250;8.312;2022-11-14T08:57:39;62.00;56.00;29.67
27143;PMS1003;14672;50.250;8.312;2022-11-14T09:00:05;60.33;54.33;25.33
27143;PMS1003;14672;50.250;8.312;2022-11-14T09:02:31;55.50;48.00;23.75
27143;PMS1003;14672;50.250;8.312;2022-11-14T09:04:57;61.00;50.00;23.67
27143;PMS1003;14672;50.250;8.312;2022-11-14T09:07:23;55.33;50.00;26.33
27143;PMS1003;14672;50.250;8.312;2022-11-14T09:09:49;62.00;53.33;25.67
27143;PMS1003;14672;50.250;8.312;2022-11-14T09:12:14;52.00;52.00;25.67
27143;PMS1003;14672;50.250;8.312;2022-11-14T09:14:41;59.25;54.00;27.75
27143;PMS1003;14672;50.250;8.312;2022-11-14T09:17:07;61.67;53.67;27.33
27143;PMS1003;14672;50.250;8.312;2022-11-14T09:19:33;52.33;48.00;24.67
27143;PMS1003;14672;50.250;8.312;2022-11-14T09:21:58;51.33;47.33;25.00
27143;PMS1003;14672;50.250;8.312;2022-11-14T09:24:24;59.00;50.00;24.33
27143;PMS1003;14672;50.250;8.312;2022-11-14T09:26:50;56.33;50.67;22.33
27143;PMS1003;14672;50.250;8.312;2022-11-14T09:29:16;48.50;46.75;24.00
27143;PMS1003;14672;50.250;8.312;2022-11-14T09:31:43;58.75;53.25;24.25
27143;PMS1003;14672;50.250;8.312;2022-11-14T09:34:09;57.75;51.25;23.75
27143;PMS1003;14672;50.250;8.312;2022-11-14T09:36:35;59.00;50.00;25.00
27143;PMS1003;14672;50.250;8.312;2022-11-14T09:39:01;44.33;43.67;21.67
27143;PMS1003;14672;50.250;8.312;2022-11-14T09:46:55;59.75;50.25;23.25
27143;PMS1003;14672;50.250;8.312;2022-11-14T09:49:40;55.50;46.00;23.50
27143;PMS1003;14672;50.250;8.312;2022-11-14T09:55:08;59.00;53.25;21.75
27143;PMS1003;14672;50.250;8.312;2022-11-14T09:57:43;48.25;43.25;21.75
27143;PMS1003;14672;50.250;8.312;2022-11-14T10:00:20;45.75;37.00;20.00
27143;PMS1003;14672;50.250;8.312;2022-11-14T10:02:55;57.00;46.25;22.00
27143;PMS1003;14672;50.250;8.312;2022-11-14T10:11:51;46.75;42.75;22.00
27143;PMS1003;14672;50.250;8.312;2022-11-14T10:28:56;47.75;42.00;21.75
27143;PMS1003;14672;50.250;8.312;2022-11-14T10:32:01;40.50;37.00;18.25
27143;PMS1003;14672;50.250;8.312;2022-11-14T10:34:55;40.00;37.50;18.50
27143;PMS1003;14672;50.250;8.312;2022-11-14T10:40:38;41.00;38.50;18.00
27143;PMS1003;14672;50.250;8.312;2022-11-14T10:43:39;46.25;38.75;19.00
27143;PMS1003;14672;50.250;8.312;2022-11-14T10:48:50;45.50;39.75;19.25
27143;PMS1003;14672;50.250;8.312;2022-11-14T10:51:37;46.00;40.50;19.50
27143;PMS1003;14672;50.250;8.312;2022-11-14T10:56:34;48.00;45.67;24.00
27143;PMS1003;14672;50.250;8.312;2022-11-14T10:59:13;48.00;40.50;21.00
27143;PMS1003;14672;50.250;8.312;2022-11-14T11:04:40;43.00;40.25;20.50
27143;PMS1003;14672;50.250;8.312;2022-11-14T11:09:33;44.50;40.75;17.50
27143;PMS1003;14672;50.250;8.312;2022-11-14T11:12:21;46.75;44.75;26.25
27143;PMS1003;14672;50.250;8.312;2022-11-14T11:14:49;43.25;39.50;19.00
27143;PMS1003;14672;50.250;8.312;2022-11-14T11:18:03;44.75;39.75;21.00
27143;PMS1003;14672;50.250;8.312;2022-11-14T11:21:13;43.00;39.00;22.00
27143;PMS1003;14672;50.250;8.312;2022-11-14T11:23:53;44.50;39.25;22.25
27143;PMS1003;14672;50.250;8.312;2022-11-14T11:34:24;41.50;35.75;17.75
27143;PMS1003;14672;50.250;8.312;2022-11-14T11:40:22;45.50;37.00;17.25
27143;PMS1003;14672;50.250;8.312;2022-11-14T11:45:20;37.50;33.50;16.25
27143;PMS1003;14672;50.250;8.312;2022-11-14T11:47:49;38.25;34.25;18.25
27143;PMS1003;14672;50.250;8.312;2022-11-14T11:50:25;34.75;32.50;17.50
27143;PMS1003;14672;50.250;8.312;2022-11-14T11:55:43;28.75;28.75;16.75
27143;PMS1003;14672;50.250;8.312;2022-11-14T12:01:02;35.25;30.50;15.25
27143;PMS1003;14672;50.250;8.312;2022-11-14T12:03:28;34.33;30.33;15.00
27143;PMS1003;14672;50.250;8.312;2022-11-14T12:09:17;28.75;28.75;11.75
27143;PMS1003;14672;50.250;8.312;2022-11-14T12:11:41;33.75;30.50;16.00
27143;PMS1003;14672;50.250;8.312;2022-11-14T12:31:04;30.50;24.25;12.50
27143;PMS1003;14672;50.250;8.312;2022-11-14T12:33:49;35.50;26.25;12.00
27143;PMS1003;14672;50.250;8.312;2022-11-14T12:36:28;37.50;33.00;13.00
27143;PMS1003;14672;50.250;8.312;2022-11-14T12:38:57;27.00;24.50;12.25
27143;PMS1003;14672;50.250;8.312;2022-11-14T12:57:56;31.00;27.50;12.00
27143;PMS1003;14672;50.250;8.312;2022-11-14T13:00:34;30.75;26.25;12.25
27143;PMS1003;14672;50.250;8.312;2022-11-14T13:03:26;25.00;23.50;12.00
27143;PMS1003;14672;50.250;8.312;2022-11-14T13:09:38;28.25;25.25;10.00
27143;PMS1003;14672;50.250;8.312;2022-11-14T13:12:36;26.25;20.50;10.25
27143;PMS1003;14672;50.250;8.312;2022-11-14T13:18:19;28.50;22.00;11.00
27143;PMS1003;14672;50.250;8.312;2022-11-14T13:22:16;25.50;22.00;10.00
27143;PMS1003;14672;50.250;8.312;2022-11-14T13:24:10;22.75;21.25;10.00
27143;PMS1003;14672;50.250;8.312;2022-11-14T13:26:46;25.75;21.50;10.00
27143;PMS1003;14672;50.250;8.312;2022-11-14T13:32:08;26.25;22.75;12.25
27143;PMS1003;14672;50.250;8.312;2022-11-14T13:46:09;24.25;23.50;8.00
27143;PMS1003;14672;50.250;8.312;2022-11-14T13:51:55;25.50;23.50;10.00
27143;PMS1003;14672;50.250;8.312;2022-11-14T13:54:20;25.00;20.67;10.00
27143;PMS1003;14672;50.250;8.312;2022-11-14T14:02:28;25.25;23.50;10.00
27143;PMS1003;14672;50.250;8.312;2022-11-14T14:13:45;23.75;22.75;10.00
27143;PMS1003;14672;50.250;8.312;2022-11-14T14:17:18;23.00;22.00;10.25
27143;PMS1003;14672;50.250;8.312;2022-11-14T14:33:42;20.25;17.00;8.00
27143;PMS1003;14672;50.250;8.312;2022-11-14T14:36:20;21.00;20.50;8.25
27143;PMS1003;14672;50.250;8.312;2022-11-14T14:38:50;20.00;16.75;7.75
27143;PMS1003;14672;50.250;8.312;2022-11-14T14:41:50;17.75;16.00;6.75
27143;PMS1003;14672;50.250;8.312;2022-11-14T14:44:26;20.00;18.75;6.25
27143;PMS1003;14672;50.250;8.312;2022-11-14T14:46:57;20.25;19.75;8.25
27143;PMS1003;14672;50.250;8.312;2022-11-14T14:49:24;19.50;18.00;8.50
27143;PMS1003;14672;50.250;8.312;2022-11-14T14:51:56;20.75;20.75;9.75
27143;PMS1003;14672;50.250;8.312;2022-11-14T14:54:23;21.00;19.67;10.00
27143;PMS1003;14672;50.250;8.312;2022-11-14T14:56:59;17.25;16.50;6.00
27143;PMS1003;14672;50.250;8.312;2022-11-14T14:59:27;17.00;17.00;8.00
27143;PMS1003;14672;50.250;8.312;2022-11-14T15:01:55;21.75;20.00;7.75
27143;PMS1003;14672;50.250;8.312;2022-11-14T15:04:23;20.75;19.25;9.00
27143;PMS1003;14672;50.250;8.312;2022-11-14T15:06:52;26.75;22.00;10.00
27143;PMS1003;14672;50.250;8.312;2022-11-14T15:09:26;24.50;22.50;11.50
27143;PMS1003;14672;50.250;8.312;2022-11-14T15:11:56;24.50;23.00;10.00
27143;PMS1003;14672;50.250;8.312;2022-11-14T15:14:29;23.00;20.00;10.00
27143;PMS1003;14672;50.250;8.312;2022-11-14T15:16:59;17.00;17.00;10.00
27143;PMS1003;14672;50.250;8.312;2022-11-14T15:19:30;18.75;18.75;10.00
27143;PMS1003;14672;50.250;8.312;2022-11-14T15:25:13;25.25;23.50;11.50
27143;PMS1003;14672;50.250;8.312;2022-11-14T15:27:46;22.25;21.50;9.75
27143;PMS1003;14672;50.250;8.312;2022-11-14T15:30:22;25.00;19.25;10.00
27143;PMS1003;14672;50.250;8.312;2022-11-14T15:32:59;24.50;21.00;10.50
27143;PMS1003;14672;50.250;8.312;2022-11-14T15:40:36;17.50;17.50;8.00
27143;PMS1003;14672;50.250;8.312;2022-11-14T15:51:45;19.33;19.33;10.00
27143;PMS1003;14672;50.250;8.312;2022-11-14T15:56:58;20.75;20.50;9.00
27143;PMS1003;14672;50.250;8.312;2022-11-14T15:59:37;21.25;19.75;10.00
27143;PMS1003;14672;50.250;8.312;2022-11-14T16:04:54;26.25;21.75;9.75
27143;PMS1003;14672;50.250;8.312;2022-11-14T16:07:21;23.75;21.00;11.00
27143;PMS1003;14672;50.250;8.312;2022-11-14T16:09:47;21.25;19.75;10.00
27143;PMS1003;14672;50.250;8.312;2022-11-14T16:12:13;22.50;20.25;10.00
27143;PMS1003;14672;50.250;8.312;2022-11-14T16:14:39;23.67;20.67;10.00
27143;PMS1003;14672;50.250;8.312;2022-11-14T16:17:08;23.75;21.25;9.50
27143;PMS1003;14672;50.250;8.312;2022-11-14T16:19:38;24.00;21.50;10.00
27143;PMS1003;14672;50.250;8.312;2022-11-14T16:22:05;24.50;24.50;12.00
27143;PMS1003;14672;50.250;8.312;2022-11-14T16:24:40;27.50;26.25;13.00
27143;PMS1003;14672;50.250;8.312;2022-11-14T16:27:06;22.67;21.33;11.67
27143;PMS1003;14672;50.250;8.312;2022-11-14T16:29:32;31.67;26.33;12.00
27143;PMS1003;14672;50.250;8.312;2022-11-14T16:31:58;29.67;26.33;12.00
27143;PMS1003;14672;50.250;8.312;2022-11-14T16:34:24;27.00;21.00;8.67
27143;PMS1003;14672;50.250;8.312;2022-11-14T16:37:00;26.50;24.50;12.50
27143;PMS1003;14672;50.250;8.312;2022-11-14T16:39:27;26.50;24.25;12.25
27143;PMS1003;14672;50.250;8.312;2022-11-14T16:41:57;29.25;25.25;13.75
27143;PMS1003;14672;50.250;8.312;2022-11-14T16:44:26;28.00;26.50;13.25
27143;PMS1003;14672;50.250;8.312;2022-11-14T16:46:52;26.33;24.33;12.00
27143;PMS1003;14672;50.250;8.312;2022-11-14T16:49:18;28.67;27.00;12.67
27143;PMS1003;14672;50.250;8.312;2022-11-14T16:51:45;34.50;31.25;13.00
27143;PMS1003;14672;50.250;8.312;2022-11-14T16:54:14;31.25;30.25;17.00
27143;PMS1003;14672;50.250;8.312;2022-11-14T16:56:41;37.25;32.75;18.00
27143;PMS1003;14672;50.250;8.312;2022-11-14T16:59:10;33.00;26.00;15.00
27143;PMS1003;14672;50.250;8.312;2022-11-14T17:01:36;33.00;30.25;14.75
27143;PMS1003;14672;50.250;8.312;2022-11-14T17:04:03;40.75;33.75;17.25
27143;PMS1003;14672;50.250;8.312;2022-11-14T17:06:29;34.50;27.25;14.25